createdAt,value
2023-03-31T00:02:30.090Z,13.00
2023-03-31T00:05:00.009Z,13.00
2023-03-31T00:07:31.823Z,11.90
2023-03-31T00:10:16.638Z,11.40
2023-03-31T00:12:46.142Z,10.80
2023-03-31T00:15:14.242Z,11.20
2023-03-31T00:17:43.596Z,10.80
2023-03-31T00:20:12.627Z,10.70
2023-03-31T00:22:46.921Z,10.70
2023-03-31T00:25:15.514Z,10.00
2023-03-31T00:27:44.329Z,10.20
2023-03-31T00:30:15.935Z,10.50
2023-03-31T00:32:44.117Z,10.10
2023-03-31T00:35:12.739Z,10.00
2023-03-31T00:44:28.284Z,8.30
2023-03-31T00:47:02.755Z,9.20
2023-03-31T00:49:45.197Z,8.90
2023-03-31T00:52:19.651Z,8.90
2023-03-31T00:54:51.784Z,8.90
2023-03-31T00:57:21.467Z,8.40
2023-03-31T00:59:58.297Z,8.70
2023-03-31T01:02:26.073Z,9.10
2023-03-31T01:05:02.529Z,9.00
2023-03-31T01:07:41.521Z,9.20
2023-03-31T01:10:10.580Z,9.60
2023-03-31T01:12:41.861Z,9.30
2023-03-31T01:15:10.483Z,9.90
2023-03-31T01:17:40.813Z,9.60
2023-03-31T01:20:35.697Z,9.40
2023-03-31T01:23:36.045Z,9.60
2023-03-31T01:26:33.339Z,9.70
2023-03-31T01:29:11.965Z,9.50
2023-03-31T01:32:11.233Z,10.00
2023-03-31T01:34:57.970Z,10.50
2023-03-31T01:37:35.195Z,10.10
2023-03-31T01:40:16.064Z,10.60
2023-03-31T01:43:28.506Z,9.40
2023-03-31T01:45:59.522Z,11.50
2023-03-31T01:49:08.102Z,11.00
2023-03-31T01:51:42.894Z,12.20
2023-03-31T01:54:22.576Z,11.40
2023-03-31T01:56:55.158Z,11.70
2023-03-31T01:59:59.859Z,11.30
2023-03-31T02:02:40.662Z,11.60
2023-03-31T02:05:20.257Z,11.30
2023-03-31T02:07:53.094Z,11.40
2023-03-31T02:10:23.967Z,11.00
2023-03-31T02:12:53.976Z,11.10
2023-03-31T02:15:27.219Z,12.40
2023-03-31T02:17:59.542Z,10.80
2023-03-31T02:20:29.595Z,10.80
2023-03-31T02:22:58.099Z,11.00
2023-03-31T02:25:35.515Z,11.20
2023-03-31T02:28:09.696Z,11.40
2023-03-31T02:30:49.095Z,10.40
2023-03-31T02:33:17.055Z,10.80
2023-03-31T02:35:45.006Z,11.20
2023-03-31T02:38:13.300Z,10.90
2023-03-31T02:40:41.760Z,10.40
2023-03-31T02:43:10.266Z,10.30
2023-03-31T02:45:58.295Z,11.00
2023-03-31T02:48:31.108Z,10.80
2023-03-31T02:51:11.242Z,10.80
2023-03-31T02:53:51.271Z,10.70
2023-03-31T02:56:46.837Z,10.40
2023-03-31T02:59:17.740Z,10.30
2023-03-31T03:02:04.781Z,10.50
2023-03-31T03:04:51.749Z,10.70
2023-03-31T03:07:32.945Z,10.60
2023-03-31T03:10:22.159Z,10.90
2023-03-31T03:13:32.152Z,11.10
2023-03-31T03:16:22.040Z,10.70
2023-03-31T03:19:00.119Z,10.70
2023-03-31T03:21:28.945Z,10.80
2023-03-31T03:23:57.633Z,10.60
2023-03-31T03:26:28.395Z,10.60
2023-03-31T03:28:57.448Z,10.40
2023-03-31T03:31:26.195Z,10.10
2023-03-31T03:33:56.926Z,10.70
2023-03-31T03:36:27.078Z,10.60
2023-03-31T03:38:55.126Z,10.80
2023-03-31T03:41:26.753Z,10.80
2023-03-31T03:43:54.707Z,11.30
2023-03-31T03:46:22.727Z,11.20
2023-03-31T03:48:50.734Z,11.20
2023-03-31T03:51:18.515Z,11.40
2023-03-31T03:53:46.358Z,11.70
2023-03-31T03:56:14.189Z,11.20
2023-03-31T03:58:42.076Z,11.60
2023-03-31T04:01:11.269Z,12.50
2023-03-31T04:03:40.659Z,12.00
2023-03-31T04:06:08.864Z,11.70
2023-03-31T04:08:37.316Z,12.60
2023-03-31T04:11:14.432Z,12.30
2023-03-31T04:13:44.516Z,12.00
2023-03-31T04:16:15.916Z,12.50
2023-03-31T04:18:43.797Z,12.50
2023-03-31T04:21:15.709Z,12.80
2023-03-31T04:23:47.046Z,13.40
2023-03-31T04:26:17.132Z,13.30
2023-03-31T04:28:50.775Z,13.20
2023-03-31T04:31:25.511Z,13.30
2023-03-31T04:33:55.096Z,12.80
2023-03-31T04:36:22.905Z,13.10
2023-03-31T04:38:54.900Z,13.10
2023-03-31T04:41:24.740Z,13.10
2023-03-31T04:43:53.003Z,13.70
2023-03-31T04:46:21.676Z,13.50
2023-03-31T04:48:49.596Z,12.60
2023-03-31T04:51:17.458Z,13.30
2023-03-31T04:53:45.593Z,12.90
2023-03-31T04:56:13.389Z,12.60
2023-03-31T04:58:42.399Z,13.70
2023-03-31T05:01:13.746Z,13.90
2023-03-31T05:03:42.666Z,12.60
2023-03-31T05:06:11.172Z,13.30
2023-03-31T05:08:39.252Z,12.60
2023-03-31T05:11:09.716Z,12.80
2023-03-31T05:13:37.672Z,12.90
2023-03-31T05:16:14.896Z,13.80
2023-03-31T05:18:43.145Z,14.00
2023-03-31T05:21:19.631Z,14.30
2023-03-31T05:23:48.648Z,14.30
2023-03-31T05:26:16.818Z,14.80
2023-03-31T05:28:44.681Z,14.00
2023-03-31T05:31:13.329Z,14.10
2023-03-31T05:33:41.975Z,15.00
2023-03-31T05:36:12.716Z,15.70
2023-03-31T05:38:41.361Z,15.60
2023-03-31T05:41:10.985Z,16.70
2023-03-31T05:43:39.916Z,16.90
2023-03-31T05:46:10.218Z,16.80
2023-03-31T05:48:38.932Z,16.70
2023-03-31T05:51:06.762Z,16.20
2023-03-31T05:53:35.278Z,16.40
2023-03-31T05:56:07.056Z,15.80
2023-03-31T05:58:36.687Z,16.00
2023-03-31T06:01:19.921Z,16.40
2023-03-31T06:03:47.938Z,16.00
2023-03-31T06:06:19.578Z,15.60
2023-03-31T06:08:48.403Z,14.60
2023-03-31T06:11:19.620Z,15.60
2023-03-31T06:13:48.713Z,16.20
2023-03-31T06:16:17.755Z,15.80
2023-03-31T06:18:51.656Z,15.80
2023-03-31T06:21:22.019Z,16.60
2023-03-31T06:23:50.334Z,15.70
2023-03-31T06:26:19.421Z,16.50
2023-03-31T06:28:47.460Z,15.90
2023-03-31T06:31:18.699Z,17.20
2023-03-31T06:33:47.685Z,16.50
2023-03-31T06:36:18.800Z,16.10
2023-03-31T06:38:46.926Z,15.90
2023-03-31T06:41:16.344Z,15.60
2023-03-31T06:43:44.401Z,16.10
2023-03-31T06:46:12.575Z,15.70
2023-03-31T06:48:41.512Z,14.80
2023-03-31T06:51:10.348Z,15.00
2023-03-31T06:53:38.322Z,15.10
2023-03-31T06:56:07.475Z,14.70
2023-03-31T06:58:36.786Z,14.90
2023-03-31T07:01:06.257Z,15.30
2023-03-31T07:03:34.488Z,14.90
2023-03-31T07:06:02.519Z,15.20
2023-03-31T07:08:31.334Z,15.50
2023-03-31T07:11:00.754Z,15.30
2023-03-31T07:13:29.164Z,15.10
2023-03-31T07:15:57.756Z,14.70
2023-03-31T07:18:34.988Z,14.30
2023-03-31T07:21:06.560Z,13.50
2023-03-31T07:23:37.756Z,13.80
2023-03-31T07:26:17.775Z,12.70
2023-03-31T07:28:48.892Z,12.80
2023-03-31T07:31:16.651Z,12.50
2023-03-31T07:33:44.444Z,12.70
2023-03-31T07:36:14.229Z,13.60
2023-03-31T07:38:44.294Z,12.90
2023-03-31T07:41:18.245Z,12.90
2023-03-31T07:43:46.607Z,13.50
2023-03-31T07:46:23.187Z,13.60
2023-03-31T07:48:51.821Z,12.80
2023-03-31T07:51:22.447Z,13.00
2023-03-31T07:53:52.622Z,13.60
2023-03-31T07:56:23.174Z,13.90
2023-03-31T07:58:56.870Z,13.70
2023-03-31T08:01:26.283Z,13.30
2023-03-31T08:03:55.660Z,13.60
2023-03-31T08:06:26.189Z,14.30
2023-03-31T08:08:53.953Z,14.50
2023-03-31T08:11:22.010Z,14.30
2023-03-31T08:13:51.717Z,14.60
2023-03-31T08:16:19.704Z,13.40
2023-03-31T08:18:47.810Z,13.60
2023-03-31T08:21:15.901Z,13.60
2023-03-31T08:34:07.130Z,11.10
2023-03-31T08:36:35.046Z,11.40
2023-03-31T08:39:03.002Z,11.00
2023-03-31T08:41:49.303Z,10.60
2023-03-31T08:44:31.612Z,11.30
2023-03-31T08:47:02.259Z,10.80
2023-03-31T08:49:40.057Z,11.20
2023-03-31T08:52:14.804Z,11.70
2023-03-31T08:54:49.554Z,11.90
2023-03-31T08:57:36.887Z,12.20
2023-03-31T09:00:08.036Z,12.70
2023-03-31T09:02:42.278Z,11.90
2023-03-31T09:05:43.383Z,11.60
2023-03-31T09:08:35.302Z,11.60
2023-03-31T09:11:08.891Z,10.50
2023-03-31T09:14:06.512Z,10.10
2023-03-31T09:16:46.028Z,10.20
2023-03-31T09:19:43.254Z,9.90
2023-03-31T09:22:25.592Z,9.80
2023-03-31T09:25:06.345Z,9.60
2023-03-31T09:27:37.502Z,10.00
2023-03-31T09:30:28.118Z,9.60
2023-03-31T09:33:32.325Z,10.20
2023-03-31T09:36:01.835Z,8.80
2023-03-31T09:38:31.165Z,8.90
2023-03-31T09:41:02.961Z,7.90
2023-03-31T09:43:35.497Z,8.00
2023-03-31T09:46:15.161Z,7.60
2023-03-31T09:49:09.293Z,7.90
2023-03-31T09:51:57.562Z,7.50
2023-03-31T09:54:46.413Z,7.60
2023-03-31T09:57:23.522Z,7.20
2023-03-31T09:59:55.013Z,7.60
2023-03-31T10:03:01.883Z,7.20
2023-03-31T10:05:33.747Z,7.50
2023-03-31T10:08:17.155Z,7.40
2023-03-31T10:11:14.875Z,7.30
2023-03-31T10:13:49.103Z,6.10
2023-03-31T10:16:32.725Z,6.00
2023-03-31T10:19:16.159Z,5.30
2023-03-31T10:23:34.625Z,5.00
2023-03-31T10:27:34.278Z,5.40
2023-03-31T10:30:52.656Z,4.60
2023-03-31T10:33:25.971Z,5.00
2023-03-31T10:35:59.718Z,4.60
2023-03-31T10:39:36.710Z,4.40
2023-03-31T10:42:04.884Z,4.10
2023-03-31T10:47:27.150Z,3.80
2023-03-31T10:51:25.967Z,3.40
2023-03-31T10:55:06.403Z,4.40
2023-03-31T10:58:06.116Z,3.90
2023-03-31T11:02:08.808Z,3.20
2023-03-31T11:04:56.100Z,3.30
2023-03-31T11:08:50.131Z,3.40
2023-03-31T11:12:58.409Z,2.80
2023-03-31T11:16:40.362Z,3.10
2023-03-31T11:20:13.036Z,3.10
2023-03-31T11:24:31.921Z,2.80
2023-03-31T11:42:54.223Z,2.80
2023-03-31T11:46:51.690Z,3.00
2023-03-31T11:50:34.571Z,3.00
2023-03-31T11:54:27.650Z,2.70
2023-03-31T11:58:04.356Z,3.00
2023-03-31T12:00:44.253Z,3.30
2023-03-31T12:03:20.935Z,3.00
2023-03-31T12:05:57.501Z,3.40
2023-03-31T12:08:44.503Z,3.50
2023-03-31T12:11:17.404Z,3.50
2023-03-31T12:13:54.365Z,3.30
2023-03-31T12:16:40.025Z,3.30
2023-03-31T12:19:14.699Z,3.60
2023-03-31T12:21:50.082Z,3.90
2023-03-31T12:24:20.200Z,3.70
2023-03-31T12:27:02.993Z,3.70
2023-03-31T12:29:43.212Z,3.50
2023-03-31T12:32:18.598Z,3.50
2023-03-31T12:34:58.612Z,3.50
2023-03-31T12:37:55.554Z,3.70
2023-03-31T12:40:46.609Z,3.70
2023-03-31T12:43:38.498Z,3.70
2023-03-31T12:46:48.759Z,3.70
2023-03-31T12:49:36.932Z,3.60
2023-03-31T12:54:23.386Z,3.30
2023-03-31T12:58:34.118Z,2.70
2023-03-31T13:02:16.753Z,3.60
2023-03-31T13:05:54.489Z,3.30
2023-03-31T13:09:46.817Z,2.80
2023-03-31T13:13:27.061Z,3.20
2023-03-31T13:17:30.860Z,3.10
2023-03-31T13:21:17.466Z,3.00
2023-03-31T13:24:45.665Z,3.20
2023-03-31T13:27:50.241Z,3.10
2023-03-31T13:30:42.603Z,2.90
2023-03-31T13:33:17.771Z,3.50
2023-03-31T13:35:50.377Z,2.80
2023-03-31T13:39:00.799Z,2.60
2023-03-31T13:41:53.052Z,3.00
2023-03-31T13:44:55.662Z,2.60
2023-03-31T13:47:51.477Z,2.90
2023-03-31T13:53:31.495Z,2.30
2023-03-31T13:56:20.218Z,2.80
2023-03-31T13:59:06.018Z,2.50
2023-03-31T14:01:48.695Z,2.80
2023-03-31T14:04:58.472Z,2.50
2023-03-31T14:07:37.310Z,2.80
2023-03-31T14:10:31.442Z,2.90
2023-03-31T14:14:29.456Z,2.40
2023-03-31T14:17:02.185Z,3.10
2023-03-31T14:23:53.514Z,2.90
2023-03-31T14:28:28.602Z,2.30
2023-03-31T14:32:29.257Z,2.40
2023-03-31T14:35:18.459Z,2.60
2023-03-31T14:37:46.779Z,2.60
2023-03-31T14:40:17.218Z,2.90
2023-03-31T14:42:49.942Z,2.60
2023-03-31T14:45:17.940Z,2.70
2023-03-31T14:59:22.329Z,2.20
2023-03-31T15:12:29.554Z,2.80
2023-03-31T15:15:17.098Z,2.90
2023-03-31T15:19:00.887Z,2.70
2023-03-31T15:22:50.913Z,2.60
2023-03-31T15:25:18.211Z,2.40
2023-03-31T15:27:55.521Z,2.30
2023-03-31T15:30:24.919Z,2.50
2023-03-31T15:36:27.906Z,2.10
2023-03-31T15:38:59.083Z,2.10
2023-03-31T15:41:31.267Z,2.90
2023-03-31T15:44:37.988Z,2.40
2023-03-31T15:47:17.354Z,2.10
2023-03-31T15:50:10.087Z,1.90
2023-03-31T15:52:54.190Z,1.80
2023-03-31T15:56:37.921Z,1.70
2023-03-31T16:00:35.229Z,1.90
2023-03-31T16:04:15.474Z,1.80
2023-03-31T16:07:53.035Z,1.70
2023-03-31T16:11:55.911Z,2.20
2023-03-31T16:15:14.304Z,1.70
2023-03-31T16:19:13.774Z,2.10
2023-03-31T16:21:46.705Z,2.40
2023-03-31T16:24:15.022Z,2.40
2023-03-31T16:26:42.299Z,2.50
2023-03-31T16:29:08.742Z,2.30
2023-03-31T16:31:39.430Z,2.30
2023-03-31T16:34:08.980Z,2.30
2023-03-31T16:36:35.855Z,2.70
2023-03-31T16:39:04.721Z,2.40
2023-03-31T16:41:33.157Z,2.50
2023-03-31T16:45:29.453Z,2.50
2023-03-31T16:48:54.954Z,2.10
2023-03-31T16:52:54.424Z,2.20
2023-03-31T16:56:12.069Z,2.10
2023-03-31T17:00:17.768Z,2.20
2023-03-31T17:03:58.811Z,1.80
2023-03-31T17:07:36.481Z,1.70
2023-03-31T17:11:14.372Z,1.50
2023-03-31T17:13:44.681Z,1.90
2023-03-31T17:18:43.793Z,2.60
2023-03-31T17:21:14.430Z,4.30
2023-03-31T17:25:08.534Z,8.80
2023-03-31T17:28:44.485Z,12.30
2023-03-31T17:32:22.563Z,11.20
2023-03-31T17:36:01.873Z,8.00
2023-03-31T17:38:30.702Z,8.60
2023-03-31T17:41:06.189Z,8.60
2023-03-31T17:43:35.650Z,7.40
2023-03-31T17:46:07.806Z,9.00
2023-03-31T17:48:39.769Z,12.30
2023-03-31T17:51:14.976Z,5.70
2023-03-31T17:53:45.311Z,4.90
2023-03-31T17:56:14.856Z,4.50
2023-03-31T17:58:43.451Z,4.50
2023-03-31T18:01:12.822Z,3.70
2023-03-31T18:03:41.335Z,3.90
2023-03-31T18:06:12.610Z,3.20
2023-03-31T18:08:42.171Z,3.60
2023-03-31T18:11:10.854Z,2.90
2023-03-31T18:13:39.436Z,3.10
2023-03-31T18:16:10.978Z,3.10
2023-03-31T18:18:39.586Z,3.00
2023-03-31T18:21:44.633Z,3.20
2023-03-31T18:25:27.083Z,3.30
2023-03-31T18:27:55.194Z,3.50
2023-03-31T18:30:23.726Z,4.10
2023-03-31T18:32:54.682Z,4.10
2023-03-31T18:35:23.463Z,4.40
2023-03-31T18:37:54.436Z,4.60
2023-03-31T18:40:22.747Z,4.70
2023-03-31T18:42:52.041Z,4.80
2023-03-31T18:45:19.936Z,4.80
2023-03-31T18:47:48.173Z,4.90
2023-03-31T18:50:16.678Z,5.00
2023-03-31T18:52:46.375Z,5.40
2023-03-31T18:55:18.218Z,5.70
2023-03-31T18:57:46.894Z,5.80
2023-03-31T19:00:15.273Z,6.10
2023-03-31T19:02:45.022Z,6.20
2023-03-31T19:05:13.430Z,6.60
2023-03-31T19:07:41.544Z,6.30
2023-03-31T19:10:09.737Z,7.20
2023-03-31T19:12:40.354Z,8.50
2023-03-31T19:15:33.920Z,7.70
2023-03-31T19:18:02.097Z,8.00
2023-03-31T19:20:30.014Z,8.00
2023-03-31T19:23:07.971Z,8.50
2023-03-31T19:25:38.558Z,9.30
2023-03-31T19:28:07.326Z,9.50
2023-03-31T19:30:58.704Z,8.50
2023-03-31T19:33:27.168Z,11.70
2023-03-31T19:35:58.385Z,13.10
2023-03-31T19:38:27.252Z,13.70
2023-03-31T19:40:58.537Z,14.30
2023-03-31T19:43:29.398Z,13.90
2023-03-31T19:46:19.306Z,14.50
2023-03-31T19:48:47.670Z,14.70
2023-03-31T19:51:16.854Z,15.00
2023-03-31T19:53:46.298Z,15.70
2023-03-31T19:56:18.754Z,16.10
2023-03-31T19:59:08.392Z,13.30
2023-03-31T20:01:40.321Z,15.50
2023-03-31T20:04:09.027Z,16.20
2023-03-31T20:06:37.822Z,15.30
2023-03-31T20:09:13.232Z,15.60
2023-03-31T20:11:50.085Z,15.80
2023-03-31T20:14:20.969Z,15.70
2023-03-31T20:16:57.079Z,16.50
2023-03-31T20:19:25.547Z,17.20
2023-03-31T20:21:59.623Z,17.60
2023-03-31T20:24:39.554Z,15.20
2023-03-31T20:27:09.598Z,18.70
2023-03-31T20:30:04.712Z,19.10
2023-03-31T20:32:32.869Z,20.10
2023-03-31T20:35:01.716Z,20.20
2023-03-31T20:37:30.071Z,21.20
2023-03-31T20:39:58.224Z,20.70
2023-03-31T20:42:53.804Z,21.00
2023-03-31T20:45:21.782Z,20.40
2023-03-31T20:47:51.089Z,21.50
2023-03-31T20:52:21.476Z,16.30
2023-03-31T20:55:57.766Z,17.80
2023-03-31T20:58:26.609Z,20.20
2023-03-31T21:00:59.292Z,19.90
2023-03-31T21:03:28.878Z,20.80
2023-03-31T21:06:03.405Z,19.60
2023-03-31T21:08:31.929Z,20.60
2023-03-31T21:11:01.155Z,20.10
2023-03-31T21:13:30.956Z,20.40
2023-03-31T21:16:04.635Z,20.00
2023-03-31T21:18:34.675Z,19.20
2023-03-31T21:21:07.473Z,19.80
2023-03-31T21:23:35.954Z,19.80
2023-03-31T21:26:05.742Z,20.30
2023-03-31T21:28:36.791Z,19.70
2023-03-31T21:31:11.195Z,20.10
2023-03-31T21:33:41.875Z,20.80
2023-03-31T21:36:14.986Z,20.40
2023-03-31T21:38:45.900Z,21.30
2023-03-31T21:41:16.588Z,21.30
2023-03-31T21:43:50.143Z,21.80
2023-03-31T21:46:22.601Z,21.60
2023-03-31T21:49:16.666Z,22.60
2023-03-31T21:51:45.515Z,21.60
2023-03-31T21:54:17.730Z,20.60
2023-03-31T21:56:46.931Z,20.60
2023-03-31T21:59:15.562Z,21.30
2023-03-31T22:01:44.399Z,19.90
2023-03-31T22:04:13.639Z,19.60
2023-03-31T22:06:41.719Z,19.80
2023-03-31T22:09:12.103Z,19.00
2023-03-31T22:11:40.057Z,18.70
2023-03-31T22:14:08.231Z,18.40
2023-03-31T22:16:37.179Z,18.10
2023-03-31T22:19:05.765Z,18.50
2023-03-31T22:21:34.197Z,18.00
2023-03-31T22:24:02.458Z,17.20
2023-03-31T22:28:39.808Z,14.40
2023-03-31T22:32:21.848Z,13.60
2023-03-31T22:35:50.806Z,13.20
2023-03-31T22:39:32.223Z,13.00
2023-03-31T22:43:16.483Z,12.90
2023-03-31T22:46:51.821Z,12.50
2023-03-31T22:50:35.516Z,13.30
2023-03-31T23:04:47.607Z,12.90
2023-03-31T23:07:40.259Z,12.10
2023-03-31T23:30:23.676Z,11.50
2023-03-31T23:34:03.082Z,11.50
